sensor_id;sensor_type;location;lat;lon;timestamp;P1;durP1;ratioP1;P2;durP2;ratioP2
20173;SDS011;10246;50.620;7.232;2022-09-12T00:01:38;12.63;;;9.13;;
20173;SDS011;10246;50.620;7.232;2022-09-12T00:04:06;14.40;;;9.70;;
20173;SDS011;10246;50.620;7.232;2022-09-12T00:06:33;12.90;;;9.20;;
20173;SDS011;10246;50.620;7.232;2022-09-12T00:09:02;13.20;;;8.90;;
20173;SDS011;10246;50.620;7.232;2022-09-12T00:11:33;13.97;;;9.60;;
20173;SDS011;10246;50.620;7.232;2022-09-12T00:14:01;12.90;;;9.10;;
20173;SDS011;10246;50.620;7.232;2022-09-12T00:16:29;13.57;;;9.30;;
20173;SDS011;10246;50.620;7.232;2022-09-12T00:18:58;13.13;;;9.33;;
20173;SDS011;10246;50.620;7.232;2022-09-12T00:21:26;13.60;;;9.50;;
20173;SDS011;10246;50.620;7.232;2022-09-12T00:23:53;13.73;;;9.50;;
20173;SDS011;10246;50.620;7.232;2022-09-12T00:26:20;13.17;;;9.30;;
20173;SDS011;10246;50.620;7.232;2022-09-12T00:28:48;14.27;;;8.93;;
20173;SDS011;10246;50.620;7.232;2022-09-12T00:31:15;11.23;;;8.57;;
20173;SDS011;10246;50.620;7.232;2022-09-12T00:33:44;12.87;;;9.60;;
20173;SDS011;10246;50.620;7.232;2022-09-12T00:36:12;11.40;;;8.63;;
20173;SDS011;10246;50.620;7.232;2022-09-12T00:38:41;11.80;;;9.13;;
20173;SDS011;10246;50.620;7.232;2022-09-12T00:41:10;11.30;;;8.60;;
20173;SDS011;10246;50.620;7.232;2022-09-12T00:43:42;14.07;;;9.73;;
20173;SDS011;10246;50.620;7.232;2022-09-12T00:46:13;12.30;;;8.77;;
20173;SDS011;10246;50.620;7.232;2022-09-12T00:48:59;13.83;;;8.80;;
20173;SDS011;10246;50.620;7.232;2022-09-12T00:51:30;14.53;;;9.07;;
20173;SDS011;10246;50.620;7.232;2022-09-12T00:54:02;12.10;;;8.07;;
20173;SDS011;10246;50.620;7.232;2022-09-12T00:56:31;14.97;;;9.43;;
20173;SDS011;10246;50.620;7.232;2022-09-12T00:58:59;16.67;;;9.00;;
20173;SDS011;10246;50.620;7.232;2022-09-12T01:01:30;13.53;;;8.43;;
20173;SDS011;10246;50.620;7.232;2022-09-12T01:03:57;12.63;;;8.27;;
20173;SDS011;10246;50.620;7.232;2022-09-12T01:06:25;13.20;;;8.27;;
20173;SDS011;10246;50.620;7.232;2022-09-12T01:08:53;11.23;;;8.13;;
20173;SDS011;10246;50.620;7.232;2022-09-12T01:11:24;12.03;;;8.37;;
20173;SDS011;10246;50.620;7.232;2022-09-12T01:13:51;12.23;;;8.07;;
20173;SDS011;10246;50.620;7.232;2022-09-12T01:16:20;12.77;;;8.17;;
20173;SDS011;10246;50.620;7.232;2022-09-12T01:18:50;13.20;;;8.23;;
20173;SDS011;10246;50.620;7.232;2022-09-12T01:21:31;13.97;;;8.33;;
20173;SDS011;10246;50.620;7.232;2022-09-12T01:27:24;12.17;;;8.70;;
20173;SDS011;10246;50.620;7.232;2022-09-12T01:30:04;12.90;;;8.60;;
20173;SDS011;10246;50.620;7.232;2022-09-12T01:32:52;11.57;;;8.20;;
20173;SDS011;10246;50.620;7.232;2022-09-12T01:35:28;11.30;;;8.47;;
20173;SDS011;10246;50.620;7.232;2022-09-12T01:38:04;10.10;;;7.70;;
20173;SDS011;10246;50.620;7.232;2022-09-12T01:40:38;13.60;;;8.53;;
20173;SDS011;10246;50.620;7.232;2022-09-12T01:43:12;14.37;;;8.03;;
20173;SDS011;10246;50.620;7.232;2022-09-12T01:45:45;13.03;;;9.00;;
20173;SDS011;10246;50.620;7.232;2022-09-12T01:48:20;9.50;;;7.47;;
20173;SDS011;10246;50.620;7.232;2022-09-12T01:50:50;10.40;;;7.37;;
20173;SDS011;10246;50.620;7.232;2022-09-12T01:53:22;13.03;;;7.70;;
20173;SDS011;10246;50.620;7.232;2022-09-12T01:55:54;10.57;;;7.60;;
20173;SDS011;10246;50.620;7.232;2022-09-12T01:58:26;11.73;;;7.30;;
20173;SDS011;10246;50.620;7.232;2022-09-12T02:00:59;10.83;;;7.80;;
20173;SDS011;10246;50.620;7.232;2022-09-12T02:03:33;11.20;;;7.60;;
20173;SDS011;10246;50.620;7.232;2022-09-12T02:06:09;11.03;;;7.30;;
20173;SDS011;10246;50.620;7.232;2022-09-12T02:08:43;14.10;;;8.70;;
20173;SDS011;10246;50.620;7.232;2022-09-12T02:11:12;15.17;;;9.57;;
20173;SDS011;10246;50.620;7.232;2022-09-12T02:13:41;11.53;;;8.43;;
20173;SDS011;10246;50.620;7.232;2022-09-12T02:16:09;11.20;;;7.93;;
20173;SDS011;10246;50.620;7.232;2022-09-12T02:18:43;13.07;;;8.07;;
20173;SDS011;10246;50.620;7.232;2022-09-12T02:21:12;10.67;;;7.23;;
20173;SDS011;10246;50.620;7.232;2022-09-12T02:23:40;11.17;;;8.17;;
20173;SDS011;10246;50.620;7.232;2022-09-12T02:26:11;12.00;;;8.43;;
20173;SDS011;10246;50.620;7.232;2022-09-12T02:28:43;10.47;;;8.20;;
20173;SDS011;10246;50.620;7.232;2022-09-12T02:31:12;10.60;;;7.47;;
20173;SDS011;10246;50.620;7.232;2022-09-12T02:33:47;11.43;;;7.87;;
20173;SDS011;10246;50.620;7.232;2022-09-12T02:36:26;12.00;;;7.67;;
20173;SDS011;10246;50.620;7.232;2022-09-12T02:38:59;10.03;;;7.13;;
20173;SDS011;10246;50.620;7.232;2022-09-12T02:41:26;12.27;;;7.50;;
20173;SDS011;10246;50.620;7.232;2022-09-12T02:43:53;10.87;;;7.77;;
20173;SDS011;10246;50.620;7.232;2022-09-12T02:46:21;11.47;;;7.50;;
20173;SDS011;10246;50.620;7.232;2022-09-12T02:48:53;12.50;;;8.00;;
20173;SDS011;10246;50.620;7.232;2022-09-12T02:51:21;13.03;;;7.70;;
20173;SDS011;10246;50.620;7.232;2022-09-12T02:53:48;12.20;;;7.57;;
20173;SDS011;10246;50.620;7.232;2022-09-12T02:56:17;13.80;;;7.80;;
20173;SDS011;10246;50.620;7.232;2022-09-12T02:58:48;9.40;;;7.30;;
20173;SDS011;10246;50.620;7.232;2022-09-12T03:01:18;9.00;;;6.73;;
20173;SDS011;10246;50.620;7.232;2022-09-12T03:03:59;10.00;;;7.13;;
20173;SDS011;10246;50.620;7.232;2022-09-12T03:06:44;10.23;;;7.30;;
20173;SDS011;10246;50.620;7.232;2022-09-12T03:09:19;9.87;;;7.13;;
20173;SDS011;10246;50.620;7.232;2022-09-12T03:12:04;11.00;;;6.90;;
20173;SDS011;10246;50.620;7.232;2022-09-12T03:14:58;12.77;;;8.43;;
20173;SDS011;10246;50.620;7.232;2022-09-12T03:17:42;11.63;;;7.87;;
20173;SDS011;10246;50.620;7.232;2022-09-12T03:20:19;10.67;;;7.80;;
20173;SDS011;10246;50.620;7.232;2022-09-12T03:22:56;11.07;;;7.63;;
20173;SDS011;10246;50.620;7.232;2022-09-12T03:25:27;10.57;;;7.43;;
20173;SDS011;10246;50.620;7.232;2022-09-12T03:27:58;11.47;;;8.00;;
20173;SDS011;10246;50.620;7.232;2022-09-12T03:30:31;11.63;;;7.47;;
20173;SDS011;10246;50.620;7.232;2022-09-12T03:33:03;12.17;;;8.03;;
20173;SDS011;10246;50.620;7.232;2022-09-12T03:35:31;10.57;;;7.53;;
20173;SDS011;10246;50.620;7.232;2022-09-12T03:37:58;10.33;;;7.70;;
20173;SDS011;10246;50.620;7.232;2022-09-12T03:40:25;12.17;;;7.90;;
20173;SDS011;10246;50.620;7.232;2022-09-12T03:42:51;11.33;;;7.27;;
20173;SDS011;10246;50.620;7.232;2022-09-12T03:45:18;11.23;;;7.63;;
20173;SDS011;10246;50.620;7.232;2022-09-12T03:47:45;9.63;;;7.43;;
20173;SDS011;10246;50.620;7.232;2022-09-12T03:50:12;8.90;;;7.20;;
20173;SDS011;10246;50.620;7.232;2022-09-12T03:52:40;10.73;;;7.53;;
20173;SDS011;10246;50.620;7.232;2022-09-12T03:55:07;10.70;;;7.90;;
20173;SDS011;10246;50.620;7.232;2022-09-12T03:57:35;10.73;;;7.63;;
20173;SDS011;10246;50.620;7.232;2022-09-12T04:00:02;12.23;;;7.80;;
20173;SDS011;10246;50.620;7.232;2022-09-12T04:02:29;11.30;;;7.63;;
20173;SDS011;10246;50.620;7.232;2022-09-12T04:04:56;11.43;;;7.77;;
20173;SDS011;10246;50.620;7.232;2022-09-12T04:07:23;11.23;;;8.40;;
20173;SDS011;10246;50.620;7.232;2022-09-12T04:09:51;11.13;;;7.83;;
20173;SDS011;10246;50.620;7.232;2022-09-12T04:12:18;15.23;;;8.30;;
20173;SDS011;10246;50.620;7.232;2022-09-12T04:14:46;10.23;;;7.43;;
20173;SDS011;10246;50.620;7.232;2022-09-12T04:17:12;14.40;;;8.57;;
20173;SDS011;10246;50.620;7.232;2022-09-12T04:19:39;11.33;;;8.00;;
20173;SDS011;10246;50.620;7.232;2022-09-12T04:22:06;13.03;;;8.27;;
20173;SDS011;10246;50.620;7.232;2022-09-12T04:24:33;14.73;;;8.37;;
20173;SDS011;10246;50.620;7.232;2022-09-12T04:27:01;11.67;;;7.63;;
20173;SDS011;10246;50.620;7.232;2022-09-12T04:29:28;13.77;;;8.77;;
20173;SDS011;10246;50.620;7.232;2022-09-12T04:31:55;12.47;;;8.67;;
20173;SDS011;10246;50.620;7.232;2022-09-12T04:34:22;15.77;;;9.00;;
20173;SDS011;10246;50.620;7.232;2022-09-12T04:36:49;13.00;;;8.17;;
20173;SDS011;10246;50.620;7.232;2022-09-12T04:39:15;13.80;;;8.40;;
20173;SDS011;10246;50.620;7.232;2022-09-12T04:41:42;14.00;;;8.47;;
20173;SDS011;10246;50.620;7.232;2022-09-12T04:44:11;9.27;;;7.37;;
20173;SDS011;10246;50.620;7.232;2022-09-12T04:46:40;10.37;;;7.27;;
20173;SDS011;10246;50.620;7.232;2022-09-12T04:49:09;13.53;;;8.23;;
20173;SDS011;10246;50.620;7.232;2022-09-12T04:51:37;11.77;;;8.23;;
20173;SDS011;10246;50.620;7.232;2022-09-12T04:54:07;15.57;;;8.90;;
20173;SDS011;10246;50.620;7.232;2022-09-12T04:56:36;14.97;;;9.37;;
20173;SDS011;10246;50.620;7.232;2022-09-12T04:59:04;12.30;;;8.83;;
20173;SDS011;10246;50.620;7.232;2022-09-12T05:01:34;16.00;;;9.93;;
20173;SDS011;10246;50.620;7.232;2022-09-12T05:04:00;14.37;;;9.80;;
20173;SDS011;10246;50.620;7.232;2022-09-12T05:06:28;16.03;;;9.67;;
20173;SDS011;10246;50.620;7.232;2022-09-12T05:08:57;16.00;;;9.27;;
20173;SDS011;10246;50.620;7.232;2022-09-12T05:11:26;14.50;;;9.60;;
20173;SDS011;10246;50.620;7.232;2022-09-12T05:13:55;15.33;;;9.93;;
20173;SDS011;10246;50.620;7.232;2022-09-12T05:16:22;16.37;;;10.30;;
20173;SDS011;10246;50.620;7.232;2022-09-12T05:18:51;17.00;;;10.73;;
20173;SDS011;10246;50.620;7.232;2022-09-12T05:21:19;18.40;;;10.23;;
20173;SDS011;10246;50.620;7.232;2022-09-12T05:23:49;12.50;;;8.97;;
20173;SDS011;10246;50.620;7.232;2022-09-12T05:26:16;14.57;;;8.70;;
20173;SDS011;10246;50.620;7.232;2022-09-12T05:28:45;13.53;;;9.20;;
20173;SDS011;10246;50.620;7.232;2022-09-12T05:31:13;18.33;;;11.00;;
20173;SDS011;10246;50.620;7.232;2022-09-12T05:33:41;19.63;;;12.13;;
20173;SDS011;10246;50.620;7.232;2022-09-12T05:36:11;21.97;;;13.20;;
20173;SDS011;10246;50.620;7.232;2022-09-12T05:38:39;29.97;;;16.37;;
20173;SDS011;10246;50.620;7.232;2022-09-12T05:41:06;26.80;;;15.53;;
20173;SDS011;10246;50.620;7.232;2022-09-12T05:43:35;26.83;;;15.17;;
20173;SDS011;10246;50.620;7.232;2022-09-12T05:46:04;23.87;;;14.60;;
20173;SDS011;10246;50.620;7.232;2022-09-12T05:48:33;26.83;;;15.30;;
20173;SDS011;10246;50.620;7.232;2022-09-12T05:51:01;24.97;;;15.27;;
20173;SDS011;10246;50.620;7.232;2022-09-12T05:53:30;26.03;;;15.53;;
20173;SDS011;10246;50.620;7.232;2022-09-12T05:56:05;24.87;;;14.93;;
20173;SDS011;10246;50.620;7.232;2022-09-12T05:58:34;26.83;;;16.03;;
20173;SDS011;10246;50.620;7.232;2022-09-12T06:01:02;28.33;;;15.87;;
20173;SDS011;10246;50.620;7.232;2022-09-12T06:03:32;25.17;;;14.93;;
20173;SDS011;10246;50.620;7.232;2022-09-12T06:06:02;26.83;;;15.37;;
20173;SDS011;10246;50.620;7.232;2022-09-12T06:08:32;28.47;;;15.63;;
20173;SDS011;10246;50.620;7.232;2022-09-12T06:11:00;27.17;;;15.23;;
20173;SDS011;10246;50.620;7.232;2022-09-12T06:13:29;30.63;;;17.50;;
20173;SDS011;10246;50.620;7.232;2022-09-12T06:16:01;31.00;;;17.67;;
20173;SDS011;10246;50.620;7.232;2022-09-12T06:18:29;31.27;;;17.17;;
20173;SDS011;10246;50.620;7.232;2022-09-12T06:20:56;33.63;;;18.70;;
20173;SDS011;10246;50.620;7.232;2022-09-12T06:23:23;31.43;;;17.27;;
20173;SDS011;10246;50.620;7.232;2022-09-12T06:25:52;30.50;;;17.60;;
20173;SDS011;10246;50.620;7.232;2022-09-12T06:28:19;30.77;;;17.17;;
20173;SDS011;10246;50.620;7.232;2022-09-12T06:30:45;29.10;;;17.57;;
20173;SDS011;10246;50.620;7.232;2022-09-12T06:33:12;30.70;;;17.87;;
20173;SDS011;10246;50.620;7.232;2022-09-12T06:35:39;31.67;;;19.43;;
20173;SDS011;10246;50.620;7.232;2022-09-12T06:38:06;30.57;;;18.87;;
20173;SDS011;10246;50.620;7.232;2022-09-12T06:40:34;32.07;;;19.07;;
20173;SDS011;10246;50.620;7.232;2022-09-12T06:43:09;32.67;;;19.00;;
20173;SDS011;10246;50.620;7.232;2022-09-12T06:45:37;33.63;;;18.97;;
20173;SDS011;10246;50.620;7.232;2022-09-12T06:48:04;33.03;;;19.83;;
20173;SDS011;10246;50.620;7.232;2022-09-12T06:50:31;32.70;;;19.20;;
20173;SDS011;10246;50.620;7.232;2022-09-12T06:52:58;31.23;;;18.23;;
20173;SDS011;10246;50.620;7.232;2022-09-12T06:55:24;27.17;;;16.97;;
20173;SDS011;10246;50.620;7.232;2022-09-12T06:57:52;28.13;;;17.33;;
20173;SDS011;10246;50.620;7.232;2022-09-12T07:00:21;28.93;;;17.30;;
20173;SDS011;10246;50.620;7.232;2022-09-12T07:02:48;33.50;;;18.43;;
20173;SDS011;10246;50.620;7.232;2022-09-12T07:05:19;32.03;;;19.30;;
20173;SDS011;10246;50.620;7.232;2022-09-12T07:07:46;32.10;;;19.10;;
20173;SDS011;10246;50.620;7.232;2022-09-12T07:10:12;31.13;;;18.33;;
20173;SDS011;10246;50.620;7.232;2022-09-12T07:12:39;30.13;;;18.70;;
20173;SDS011;10246;50.620;7.232;2022-09-12T07:15:06;29.17;;;18.57;;
20173;SDS011;10246;50.620;7.232;2022-09-12T07:17:35;32.27;;;18.20;;
20173;SDS011;10246;50.620;7.232;2022-09-12T07:20:02;31.27;;;19.20;;
20173;SDS011;10246;50.620;7.232;2022-09-12T07:22:29;31.27;;;17.93;;
20173;SDS011;10246;50.620;7.232;2022-09-12T07:24:56;28.87;;;18.20;;
20173;SDS011;10246;50.620;7.232;2022-09-12T07:27:23;25.93;;;16.97;;
20173;SDS011;10246;50.620;7.232;2022-09-12T07:29:50;34.33;;;18.23;;
20173;SDS011;10246;50.620;7.232;2022-09-12T07:32:16;26.80;;;17.57;;
20173;SDS011;10246;50.620;7.232;2022-09-12T07:34:44;28.30;;;17.83;;
20173;SDS011;10246;50.620;7.232;2022-09-12T07:37:11;27.10;;;17.20;;
20173;SDS011;10246;50.620;7.232;2022-09-12T07:39:38;24.33;;;15.47;;
20173;SDS011;10246;50.620;7.232;2022-09-12T07:42:05;27.67;;;17.07;;
20173;SDS011;10246;50.620;7.232;2022-09-12T07:44:32;25.57;;;16.17;;
20173;SDS011;10246;50.620;7.232;2022-09-12T07:46:59;22.07;;;14.10;;
20173;SDS011;10246;50.620;7.232;2022-09-12T07:49:26;20.87;;;13.87;;
20173;SDS011;10246;50.620;7.232;2022-09-12T07:51:54;20.97;;;14.30;;
20173;SDS011;10246;50.620;7.232;2022-09-12T07:54:21;21.37;;;13.43;;
20173;SDS011;10246;50.620;7.232;2022-09-12T07:56:48;21.03;;;12.37;;
20173;SDS011;10246;50.620;7.232;2022-09-12T07:59:15;21.17;;;13.00;;
20173;SDS011;10246;50.620;7.232;2022-09-12T08:01:42;18.73;;;12.17;;
20173;SDS011;10246;50.620;7.232;2022-09-12T08:04:09;17.33;;;12.40;;
20173;SDS011;10246;50.620;7.232;2022-09-12T08:06:36;19.27;;;12.17;;
20173;SDS011;10246;50.620;7.232;2022-09-12T08:09:04;14.80;;;10.93;;
20173;SDS011;10246;50.620;7.232;2022-09-12T08:11:32;17.17;;;10.87;;
20173;SDS011;10246;50.620;7.232;2022-09-12T08:13:59;15.70;;;10.67;;
20173;SDS011;10246;50.620;7.232;2022-09-12T08:16:27;14.30;;;9.50;;
20173;SDS011;10246;50.620;7.232;2022-09-12T08:18:56;17.30;;;9.37;;
20173;SDS011;10246;50.620;7.232;2022-09-12T08:21:25;13.53;;;9.47;;
20173;SDS011;10246;50.620;7.232;2022-09-12T08:23:55;13.57;;;9.10;;
20173;SDS011;10246;50.620;7.232;2022-09-12T08:26:24;12.90;;;9.00;;
20173;SDS011;10246;50.620;7.232;2022-09-12T08:28:52;14.13;;;8.93;;
20173;SDS011;10246;50.620;7.232;2022-09-12T08:31:20;16.97;;;8.83;;
20173;SDS011;10246;50.620;7.232;2022-09-12T08:33:48;11.60;;;8.77;;
20173;SDS011;10246;50.620;7.232;2022-09-12T08:36:15;11.23;;;8.00;;
20173;SDS011;10246;50.620;7.232;2022-09-12T08:38:45;10.67;;;8.03;;
20173;SDS011;10246;50.620;7.232;2022-09-12T08:41:19;10.63;;;7.93;;
20173;SDS011;10246;50.620;7.232;2022-09-12T08:43:57;11.57;;;7.47;;
20173;SDS011;10246;50.620;7.232;2022-09-12T08:46:34;9.80;;;7.10;;
20173;SDS011;10246;50.620;7.232;2022-09-12T08:49:09;10.47;;;6.90;;
20173;SDS011;10246;50.620;7.232;2022-09-12T08:51:39;9.47;;;7.10;;
20173;SDS011;10246;50.620;7.232;2022-09-12T08:54:18;11.30;;;7.43;;
20173;SDS011;10246;50.620;7.232;2022-09-12T08:56:49;8.60;;;6.90;;
20173;SDS011;10246;50.620;7.232;2022-09-12T08:59:19;11.40;;;7.33;;
20173;SDS011;10246;50.620;7.232;2022-09-12T09:01:45;10.63;;;7.93;;
20173;SDS011;10246;50.620;7.232;2022-09-12T09:04:35;10.23;;;7.50;;
20173;SDS011;10246;50.620;7.232;2022-09-12T09:07:17;10.47;;;7.80;;
20173;SDS011;10246;50.620;7.232;2022-09-12T09:09:55;9.70;;;7.00;;
20173;SDS011;10246;50.620;7.232;2022-09-12T09:12:35;11.20;;;7.53;;
20173;SDS011;10246;50.620;7.232;2022-09-12T09:15:16;12.47;;;7.93;;
20173;SDS011;10246;50.620;7.232;2022-09-12T09:17:50;9.53;;;7.20;;
20173;SDS011;10246;50.620;7.232;2022-09-12T09:20:21;10.93;;;6.80;;
20173;SDS011;10246;50.620;7.232;2022-09-12T09:22:54;11.27;;;7.47;;
20173;SDS011;10246;50.620;7.232;2022-09-12T09:25:28;9.03;;;6.47;;
20173;SDS011;10246;50.620;7.232;2022-09-12T09:28:10;8.40;;;6.30;;
20173;SDS011;10246;50.620;7.232;2022-09-12T09:30:44;7.70;;;6.03;;
20173;SDS011;10246;50.620;7.232;2022-09-12T09:33:14;9.37;;;6.73;;
20173;SDS011;10246;50.620;7.232;2022-09-12T09:35:50;8.53;;;6.63;;
20173;SDS011;10246;50.620;7.232;2022-09-12T09:38:25;9.57;;;6.80;;
20173;SDS011;10246;50.620;7.232;2022-09-12T09:41:02;8.93;;;6.10;;
20173;SDS011;10246;50.620;7.232;2022-09-12T09:43:39;6.93;;;6.03;;
20173;SDS011;10246;50.620;7.232;2022-09-12T09:46:08;10.10;;;7.27;;
20173;SDS011;10246;50.620;7.232;2022-09-12T09:48:36;7.77;;;6.23;;
20173;SDS011;10246;50.620;7.232;2022-09-12T09:51:06;8.50;;;5.93;;
20173;SDS011;10246;50.620;7.232;2022-09-12T09:53:36;7.47;;;6.03;;
20173;SDS011;10246;50.620;7.232;2022-09-12T09:56:07;8.10;;;5.47;;
20173;SDS011;10246;50.620;7.232;2022-09-12T09:58:37;7.27;;;5.90;;
20173;SDS011;10246;50.620;7.232;2022-09-12T10:01:10;6.27;;;4.90;;
20173;SDS011;10246;50.620;7.232;2022-09-12T10:03:46;6.83;;;5.30;;
20173;SDS011;10246;50.620;7.232;2022-09-12T10:06:22;5.67;;;5.07;;
20173;SDS011;10246;50.620;7.232;2022-09-12T10:09:03;6.77;;;5.00;;
20173;SDS011;10246;50.620;7.232;2022-09-12T10:11:32;7.07;;;5.73;;
20173;SDS011;10246;50.620;7.232;2022-09-12T10:14:07;16.67;;;6.07;;
20173;SDS011;10246;50.620;7.232;2022-09-12T10:16:54;7.50;;;5.33;;
20173;SDS011;10246;50.620;7.232;2022-09-12T10:19:23;8.07;;;5.60;;
20173;SDS011;10246;50.620;7.232;2022-09-12T10:22:00;7.87;;;6.10;;
20173;SDS011;10246;50.620;7.232;2022-09-12T10:24:29;13.00;;;6.10;;
20173;SDS011;10246;50.620;7.232;2022-09-12T10:27:04;26.63;;;6.50;;
20173;SDS011;10246;50.620;7.232;2022-09-12T10:29:34;9.03;;;5.33;;
20173;SDS011;10246;50.620;7.232;2022-09-12T10:32:09;7.20;;;5.00;;
20173;SDS011;10246;50.620;7.232;2022-09-12T10:34:39;5.10;;;4.60;;
20173;SDS011;10246;50.620;7.232;2022-09-12T10:37:09;9.50;;;4.90;;
20173;SDS011;10246;50.620;7.232;2022-09-12T10:39:47;5.87;;;4.47;;
20173;SDS011;10246;50.620;7.232;2022-09-12T10:42:17;6.53;;;4.40;;
20173;SDS011;10246;50.620;7.232;2022-09-12T10:45:17;5.28;;;4.03;;
20173;SDS011;10246;50.620;7.232;2022-09-12T10:47:54;7.45;;;4.05;;
20173;SDS011;10246;50.620;7.232;2022-09-12T10:50:25;4.50;;;3.53;;
20173;SDS011;10246;50.620;7.232;2022-09-12T10:52:55;8.02;;;3.92;;
20173;SDS011;10246;50.620;7.232;2022-09-12T10:55:40;4.75;;;4.05;;
20173;SDS011;10246;50.620;7.232;2022-09-12T10:58:28;5.40;;;3.90;;
20173;SDS011;10246;50.620;7.232;2022-09-12T11:01:06;4.88;;;3.85;;
20173;SDS011;10246;50.620;7.232;2022-09-12T11:03:48;4.10;;;3.70;;
20173;SDS011;10246;50.620;7.232;2022-09-12T11:06:29;4.53;;;4.13;;
20173;SDS011;10246;50.620;7.232;2022-09-12T11:09:05;4.10;;;3.70;;
20173;SDS011;10246;50.620;7.232;2022-09-12T11:11:44;6.53;;;3.65;;
20173;SDS011;10246;50.620;7.232;2022-09-12T11:17:21;5.88;;;3.42;;
20173;SDS011;10246;50.620;7.232;2022-09-12T11:20:02;12.70;;;4.20;;
20173;SDS011;10246;50.620;7.232;2022-09-12T11:22:42;8.25;;;3.85;;
20173;SDS011;10246;50.620;7.232;2022-09-12T11:25:26;14.70;;;5.10;;
20173;SDS011;10246;50.620;7.232;2022-09-12T11:28:03;5.00;;;3.63;;
20173;SDS011;10246;50.620;7.232;2022-09-12T11:30:44;12.32;;;4.15;;
20173;SDS011;10246;50.620;7.232;2022-09-12T11:33:28;4.70;;;3.70;;
20173;SDS011;10246;50.620;7.232;2022-09-12T11:36:09;7.13;;;4.05;;
20173;SDS011;10246;50.620;7.232;2022-09-12T11:38:53;3.60;;;3.30;;
20173;SDS011;10246;50.620;7.232;2022-09-12T11:41:29;3.63;;;2.90;;
20173;SDS011;10246;50.620;7.232;2022-09-12T11:43:59;3.92;;;2.90;;
20173;SDS011;10246;50.620;7.232;2022-09-12T11:46:30;3.00;;;2.80;;
20173;SDS011;10246;50.620;7.232;2022-09-12T11:49:03;2.92;;;2.65;;
20173;SDS011;10246;50.620;7.232;2022-09-12T11:51:39;10.02;;;3.33;;
20173;SDS011;10246;50.620;7.232;2022-09-12T11:54:11;5.82;;;3.40;;
20173;SDS011;10246;50.620;7.232;2022-09-12T11:56:45;4.82;;;3.53;;
20173;SDS011;10246;50.620;7.232;2022-09-12T11:59:17;4.50;;;2.90;;
20173;SDS011;10246;50.620;7.232;2022-09-12T12:01:55;4.40;;;3.20;;
20173;SDS011;10246;50.620;7.232;2022-09-12T12:04:26;4.38;;;3.05;;
20173;SDS011;10246;50.620;7.232;2022-09-12T12:07:02;6.00;;;3.20;;
20173;SDS011;10246;50.620;7.232;2022-09-12T12:09:31;4.25;;;3.20;;
20173;SDS011;10246;50.620;7.232;2022-09-12T12:11:59;5.95;;;3.58;;
20173;SDS011;10246;50.620;7.232;2022-09-12T12:14:32;3.47;;;3.10;;
20173;SDS011;10246;50.620;7.232;2022-09-12T12:17:11;3.45;;;3.15;;
20173;SDS011;10246;50.620;7.232;2022-09-12T12:19:39;5.93;;;3.33;;
20173;SDS011;10246;50.620;7.232;2022-09-12T12:22:17;18.25;;;4.57;;
20173;SDS011;10246;50.620;7.232;2022-09-12T12:24:59;6.05;;;3.33;;
20173;SDS011;10246;50.620;7.232;2022-09-12T12:27:46;3.17;;;2.88;;
20173;SDS011;10246;50.620;7.232;2022-09-12T12:36:35;3.83;;;3.33;;
20173;SDS011;10246;50.620;7.232;2022-09-12T12:51:32;3.33;;;2.80;;
20173;SDS011;10246;50.620;7.232;2022-09-12T12:57:03;3.47;;;2.92;;
20173;SDS011;10246;50.620;7.232;2022-09-12T12:59:45;3.20;;;2.90;;
20173;SDS011;10246;50.620;7.232;2022-09-12T13:02:24;3.10;;;2.75;;
20173;SDS011;10246;50.620;7.232;2022-09-12T13:04:55;4.25;;;3.00;;
20173;SDS011;10246;50.620;7.232;2022-09-12T13:07:26;3.00;;;2.70;;
20173;SDS011;10246;50.620;7.232;2022-09-12T13:09:57;3.97;;;2.83;;
20173;SDS011;10246;50.620;7.232;2022-09-12T13:12:26;3.03;;;2.70;;
20173;SDS011;10246;50.620;7.232;2022-09-12T13:14:55;5.65;;;3.25;;
20173;SDS011;10246;50.620;7.232;2022-09-12T13:17:26;3.80;;;3.00;;
20173;SDS011;10246;50.620;7.232;2022-09-12T13:20:04;3.40;;;3.10;;
20173;SDS011;10246;50.620;7.232;2022-09-12T13:22:47;4.85;;;2.67;;
20173;SDS011;10246;50.620;7.232;2022-09-12T13:25:17;4.70;;;3.13;;
20173;SDS011;10246;50.620;7.232;2022-09-12T13:27:55;3.92;;;2.88;;
20173;SDS011;10246;50.620;7.232;2022-09-12T13:30:32;3.10;;;2.85;;
20173;SDS011;10246;50.620;7.232;2022-09-12T13:33:05;5.15;;;2.97;;
20173;SDS011;10246;50.620;7.232;2022-09-12T13:35:42;2.80;;;2.60;;
20173;SDS011;10246;50.620;7.232;2022-09-12T13:38:20;3.65;;;2.60;;
20173;SDS011;10246;50.620;7.232;2022-09-12T13:41:02;2.95;;;2.65;;
20173;SDS011;10246;50.620;7.232;2022-09-12T13:43:42;4.30;;;2.88;;
20173;SDS011;10246;50.620;7.232;2022-09-12T13:46:12;5.15;;;3.03;;
20173;SDS011;10246;50.620;7.232;2022-09-12T13:48:44;2.88;;;2.67;;
20173;SDS011;10246;50.620;7.232;2022-09-12T13:51:18;3.35;;;2.85;;
20173;SDS011;10246;50.620;7.232;2022-09-12T13:53:49;3.13;;;2.63;;
20173;SDS011;10246;50.620;7.232;2022-09-12T13:56:18;2.90;;;2.35;;
20173;SDS011;10246;50.620;7.232;2022-09-12T13:58:52;2.70;;;2.50;;
20173;SDS011;10246;50.620;7.232;2022-09-12T14:01:20;2.65;;;2.25;;
20173;SDS011;10246;50.620;7.232;2022-09-12T14:03:50;2.90;;;2.70;;
20173;SDS011;10246;50.620;7.232;2022-09-12T14:06:40;4.28;;;2.60;;
20173;SDS011;10246;50.620;7.232;2022-09-12T14:09:12;2.83;;;2.30;;
20173;SDS011;10246;50.620;7.232;2022-09-12T14:11:40;2.90;;;2.60;;
20173;SDS011;10246;50.620;7.232;2022-09-12T14:14:13;3.25;;;2.10;;
20173;SDS011;10246;50.620;7.232;2022-09-12T14:16:44;5.07;;;2.30;;
20173;SDS011;10246;50.620;7.232;2022-09-12T14:19:13;4.85;;;2.75;;
20173;SDS011;10246;50.620;7.232;2022-09-12T14:21:40;2.88;;;2.30;;
20173;SDS011;10246;50.620;7.232;2022-09-12T14:24:08;2.95;;;2.10;;
20173;SDS011;10246;50.620;7.232;2022-09-12T14:26:36;2.40;;;2.20;;
20173;SDS011;10246;50.620;7.232;2022-09-12T14:29:04;4.75;;;2.63;;
20173;SDS011;10246;50.620;7.232;2022-09-12T14:31:33;3.75;;;2.47;;
20173;SDS011;10246;50.620;7.232;2022-09-12T14:34:09;2.55;;;2.35;;
20173;SDS011;10246;50.620;7.232;2022-09-12T14:36:41;2.10;;;1.90;;
20173;SDS011;10246;50.620;7.232;2022-09-12T14:39:17;3.42;;;1.95;;
20173;SDS011;10246;50.620;7.232;2022-09-12T14:41:47;2.17;;;1.98;;
20173;SDS011;10246;50.620;7.232;2022-09-12T14:44:16;4.93;;;1.70;;
20173;SDS011;10246;50.620;7.232;2022-09-12T14:46:44;2.08;;;1.88;;
20173;SDS011;10246;50.620;7.232;2022-09-12T14:49:13;1.75;;;1.65;;
20173;SDS011;10246;50.620;7.232;2022-09-12T14:51:47;3.38;;;1.80;;
20173;SDS011;10246;50.620;7.232;2022-09-12T14:57:29;1.35;;;1.25;;
20173;SDS011;10246;50.620;7.232;2022-09-12T15:00:09;1.92;;;1.50;;
20173;SDS011;10246;50.620;7.232;2022-09-12T15:02:45;1.63;;;1.40;;
20173;SDS011;10246;50.620;7.232;2022-09-12T15:05:17;1.75;;;1.65;;
20173;SDS011;10246;50.620;7.232;2022-09-12T15:07:57;1.67;;;1.48;;
20173;SDS011;10246;50.620;7.232;2022-09-12T15:10:26;1.70;;;1.55;;
20173;SDS011;10246;50.620;7.232;2022-09-12T15:13:15;2.95;;;1.42;;
20173;SDS011;10246;50.620;7.232;2022-09-12T15:15:44;1.33;;;1.23;;
20173;SDS011;10246;50.620;7.232;2022-09-12T15:18:12;2.45;;;1.75;;
20173;SDS011;10246;50.620;7.232;2022-09-12T15:20:40;2.72;;;1.20;;
20173;SDS011;10246;50.620;7.232;2022-09-12T15:23:11;1.23;;;1.13;;
20173;SDS011;10246;50.620;7.232;2022-09-12T15:25:42;1.38;;;1.27;;
20173;SDS011;10246;50.620;7.232;2022-09-12T15:28:12;1.90;;;1.33;;
20173;SDS011;10246;50.620;7.232;2022-09-12T15:30:41;1.10;;;1.10;;
20173;SDS011;10246;50.620;7.232;2022-09-12T15:33:09;2.05;;;1.33;;